createdAt,value
2022-10-31T00:00:30.607Z,99786.84
2022-10-31T00:01:35.905Z,99786.28
2022-10-31T00:02:39.867Z,99796.13
2022-10-31T00:03:44.250Z,99787.66
2022-10-31T00:04:47.537Z,99788.02
2022-10-31T00:05:51.366Z,99791.30
2022-10-31T00:06:55.394Z,99792.44
2022-10-31T00:08:00.052Z,99790.45
2022-10-31T00:09:05.007Z,99778.02
2022-10-31T00:10:11.260Z,99784.41
2022-10-31T00:11:14.207Z,99781.30
2022-10-31T00:12:17.473Z,99782.97
2022-10-31T00:13:23.664Z,99788.72
2022-10-31T00:14:28.479Z,99780.64
2022-10-31T00:15:32.938Z,99792.11
2022-10-31T00:16:36.552Z,99779.06
2022-10-31T00:17:39.529Z,99786.36
2022-10-31T00:18:41.772Z,99774.89
2022-10-31T00:19:46.540Z,99782.78
2022-10-31T00:20:50.779Z,99785.44
2022-10-31T00:21:54.177Z,99787.25
2022-10-31T00:23:00.816Z,99784.26
2022-10-31T00:24:04.000Z,99782.45
2022-10-31T00:25:07.919Z,99784.88
2022-10-31T00:26:11.531Z,99792.96
2022-10-31T00:27:14.719Z,99780.64
2022-10-31T00:29:20.069Z,99784.70
2022-10-31T00:30:23.773Z,99790.02
2022-10-31T00:31:27.289Z,99788.83
2022-10-31T00:32:31.852Z,99793.99
2022-10-31T00:33:38.498Z,99795.02
2022-10-31T00:34:41.704Z,99792.41
2022-10-31T00:35:46.834Z,99790.92
2022-10-31T00:36:52.079Z,99788.68
2022-10-31T00:37:56.186Z,99780.83
2022-10-31T00:38:58.915Z,99784.11
2022-10-31T00:40:05.449Z,99783.19
2022-10-31T00:41:08.430Z,99778.50
2022-10-31T00:42:11.678Z,99783.38
2022-10-31T00:43:15.026Z,99780.20
2022-10-31T00:44:18.750Z,99789.34
2022-10-31T00:45:23.506Z,99787.42
2022-10-31T00:46:28.781Z,99790.44
2022-10-31T00:47:33.185Z,99790.44
2022-10-31T00:48:36.632Z,99783.48
2022-10-31T00:49:40.555Z,99781.67
2022-10-31T00:50:45.772Z,99780.05
2022-10-31T00:51:50.478Z,99782.11
2022-10-31T00:52:54.099Z,99784.50
2022-10-31T00:53:58.532Z,99777.39
2022-10-31T00:55:02.118Z,99773.04
2022-10-31T00:56:07.526Z,99771.56
2022-10-31T00:57:13.330Z,99777.28
2022-10-31T00:58:17.727Z,99767.10
2022-10-31T00:59:21.836Z,99762.42
2022-10-31T01:00:24.690Z,99768.06
2022-10-31T01:01:28.760Z,99769.75
2022-10-31T01:02:32.603Z,99765.24
2022-10-31T01:03:39.165Z,99765.53
2022-10-31T01:04:44.665Z,99760.34
2022-10-31T01:05:50.807Z,99762.13
2022-10-31T01:06:55.357Z,99760.20
2022-10-31T01:08:02.367Z,99770.44
2022-10-31T01:09:06.946Z,99764.17
2022-10-31T01:10:10.754Z,99758.73
2022-10-31T01:11:22.924Z,99767.31
2022-10-31T01:12:26.300Z,99759.25
2022-10-31T01:13:29.080Z,99762.13
2022-10-31T01:14:32.492Z,99767.40
2022-10-31T01:15:39.806Z,99769.97
2022-10-31T01:16:45.460Z,99762.86
2022-10-31T01:17:49.597Z,99765.73
2022-10-31T01:18:54.878Z,99767.42
2022-10-31T01:19:58.384Z,99768.01
2022-10-31T01:21:08.254Z,99766.92
2022-10-31T01:22:11.974Z,99768.93
2022-10-31T01:23:15.477Z,99775.52
2022-10-31T01:24:18.718Z,99769.94
2022-10-31T01:25:21.747Z,99768.02
2022-10-31T01:26:29.222Z,99767.79
2022-10-31T01:27:33.432Z,99769.47
2022-10-31T01:28:41.767Z,99772.37
2022-10-31T01:29:45.075Z,99772.59
2022-10-31T01:30:48.646Z,99770.32
2022-10-31T01:31:51.968Z,99765.97
2022-10-31T01:32:54.857Z,99768.19
2022-10-31T01:34:00.089Z,99767.45
2022-10-31T01:35:03.642Z,99778.70
2022-10-31T01:36:14.251Z,99773.72
2022-10-31T01:37:18.055Z,99776.23
2022-10-31T01:38:24.612Z,99771.69
2022-10-31T01:39:28.217Z,99773.39
2022-10-31T01:40:31.823Z,99771.63
2022-10-31T01:41:36.986Z,99781.61
2022-10-31T01:42:41.618Z,99779.06
2022-10-31T01:43:49.241Z,99779.39
2022-10-31T01:44:55.480Z,99774.50
2022-10-31T01:46:01.047Z,99778.17
2022-10-31T01:47:09.253Z,99780.77
2022-10-31T01:48:14.636Z,99790.95
2022-10-31T01:49:24.616Z,99788.77
2022-10-31T01:50:31.224Z,99792.90
2022-10-31T01:51:36.639Z,99779.39
2022-10-31T01:52:44.427Z,99781.72
2022-10-31T01:53:47.513Z,99790.11
2022-10-31T01:54:52.051Z,99797.88
2022-10-31T01:55:56.392Z,99777.83
2022-10-31T01:57:00.982Z,99786.74
2022-10-31T01:58:06.156Z,99777.94
2022-10-31T01:59:13.498Z,99777.37
2022-10-31T02:00:18.245Z,99774.83
2022-10-31T02:01:22.008Z,99779.28
2022-10-31T02:02:27.293Z,99783.84
2022-10-31T02:03:31.937Z,99776.98
2022-10-31T02:04:35.932Z,99782.28
2022-10-31T02:05:40.275Z,99789.05
2022-10-31T02:06:44.509Z,99783.56
2022-10-31T02:08:04.436Z,99784.48
2022-10-31T02:09:08.020Z,99775.56
2022-10-31T02:10:11.737Z,99782.39
2022-10-31T02:11:15.241Z,99776.45
2022-10-31T02:12:18.745Z,99779.92
2022-10-31T02:13:23.286Z,99781.44
2022-10-31T02:14:27.206Z,99785.11
2022-10-31T02:15:31.338Z,99789.78
2022-10-31T02:16:34.843Z,99784.16
2022-10-31T02:17:39.231Z,99793.61
2022-10-31T02:18:47.046Z,99793.50
2022-10-31T02:20:13.347Z,99806.16
2022-10-31T02:21:18.454Z,99801.45
2022-10-31T02:22:28.411Z,99802.94
2022-10-31T02:23:38.280Z,99798.77
2022-10-31T02:25:01.536Z,99800.60
2022-10-31T02:26:06.706Z,99816.10
2022-10-31T02:27:25.355Z,99807.72
2022-10-31T02:28:36.772Z,99805.66
2022-10-31T02:29:44.797Z,99815.67
2022-10-31T02:30:53.517Z,99804.53
2022-10-31T02:32:10.716Z,99815.67
2022-10-31T02:33:17.138Z,99821.58
2022-10-31T02:34:41.846Z,99820.41
2022-10-31T02:35:56.356Z,99823.06
2022-10-31T02:37:06.724Z,99818.82
2022-10-31T02:38:18.784Z,99828.36
2022-10-31T02:39:27.000Z,99829.10
2022-10-31T02:40:38.913Z,99825.37
2022-10-31T02:41:52.088Z,99834.41
2022-10-31T02:43:04.598Z,99829.31
2022-10-31T02:44:10.474Z,99835.47
2022-10-31T02:45:21.905Z,99833.29
2022-10-31T02:46:26.992Z,99842.16
2022-10-31T02:47:32.054Z,99840.93
2022-10-31T02:48:37.329Z,99847.03
2022-10-31T02:49:48.288Z,99847.84
2022-10-31T02:50:54.064Z,99849.44
2022-10-31T02:51:56.305Z,99851.24
2022-10-31T02:52:59.925Z,99854.70
2022-10-31T02:54:04.637Z,99846.73
2022-10-31T02:55:15.594Z,99845.33
2022-10-31T02:56:21.500Z,99849.63
2022-10-31T02:57:32.421Z,99843.64
2022-10-31T02:58:39.177Z,99844.66
2022-10-31T02:59:43.505Z,99853.36
2022-10-31T03:00:52.878Z,99849.22
2022-10-31T03:02:04.202Z,99855.64
2022-10-31T03:03:09.808Z,99851.08
2022-10-31T03:04:15.292Z,99853.41
2022-10-31T03:05:31.855Z,99862.13
2022-10-31T03:06:36.916Z,99868.70
2022-10-31T03:07:44.810Z,99857.65
2022-10-31T03:08:50.922Z,99850.86
2022-10-31T03:10:02.516Z,99857.51
2022-10-31T03:11:07.970Z,99849.96
2022-10-31T03:12:15.130Z,99858.94
2022-10-31T03:14:27.050Z,99864.50
2022-10-31T03:15:34.106Z,99867.09
2022-10-31T03:16:45.653Z,99861.67
2022-10-31T03:17:51.488Z,99852.67
2022-10-31T03:19:02.483Z,99859.78
2022-10-31T03:20:08.661Z,99859.30
2022-10-31T03:21:14.922Z,99862.17
2022-10-31T03:22:19.472Z,99866.25
2022-10-31T03:23:24.127Z,99873.59
2022-10-31T03:24:28.783Z,99871.61
2022-10-31T03:25:36.961Z,99880.28
2022-10-31T03:26:42.894Z,99882.62
2022-10-31T03:27:47.872Z,99880.18
2022-10-31T03:28:55.788Z,99888.23
2022-10-31T03:30:01.230Z,99894.50
2022-10-31T03:31:07.495Z,99886.80
2022-10-31T03:32:14.769Z,99893.70
2022-10-31T03:33:20.099Z,99882.51
2022-10-31T03:34:23.519Z,99896.85
2022-10-31T03:35:28.824Z,99891.44
2022-10-31T03:36:32.913Z,99897.70
2022-10-31T03:37:37.370Z,99907.09
2022-10-31T03:38:43.582Z,99911.94
2022-10-31T03:39:48.558Z,99905.56
2022-10-31T03:40:53.620Z,99916.75
2022-10-31T03:41:57.835Z,99917.85
2022-10-31T03:43:03.906Z,99920.51
2022-10-31T03:44:09.983Z,99933.75
2022-10-31T03:45:16.216Z,99931.09
2022-10-31T03:46:19.696Z,99938.27
2022-10-31T03:47:23.537Z,99940.22
2022-10-31T03:48:27.866Z,99959.56
2022-10-31T03:49:31.517Z,99968.91
2022-10-31T03:50:37.962Z,99976.53
2022-10-31T03:51:47.199Z,99978.23
2022-10-31T03:52:55.166Z,99989.59
2022-10-31T03:54:00.222Z,99983.32
2022-10-31T03:55:14.594Z,99986.08
2022-10-31T03:56:25.130Z,99983.83
2022-10-31T03:57:30.802Z,99983.83
2022-10-31T03:58:38.590Z,99989.83
2022-10-31T03:59:44.075Z,99987.84
2022-10-31T04:00:49.464Z,99986.43
2022-10-31T04:01:56.648Z,99990.98
2022-10-31T04:03:02.165Z,99978.78
2022-10-31T04:04:07.708Z,99991.73
2022-10-31T04:05:11.008Z,99990.12
2022-10-31T04:06:16.599Z,99988.55
2022-10-31T04:07:22.922Z,99991.11
2022-10-31T04:08:28.680Z,99987.38
2022-10-31T04:09:32.923Z,99990.33
2022-10-31T04:10:38.027Z,99991.89
2022-10-31T04:11:49.790Z,99995.78
2022-10-31T04:13:05.578Z,99993.69
2022-10-31T04:14:14.139Z,99988.30
2022-10-31T04:15:17.021Z,99997.80
2022-10-31T04:16:21.045Z,99997.80
2022-10-31T04:17:25.218Z,100011.83
2022-10-31T04:18:28.462Z,99997.34
2022-10-31T04:19:34.238Z,100012.02
2022-10-31T04:20:40.234Z,100012.14
2022-10-31T04:21:47.646Z,100009.69
2022-10-31T04:22:50.533Z,100014.13
2022-10-31T04:23:55.061Z,100011.30
2022-10-31T04:24:59.223Z,100012.43
2022-10-31T04:26:03.649Z,100007.61
2022-10-31T04:27:06.985Z,100015.30
2022-10-31T04:28:10.299Z,100010.50
2022-10-31T04:29:14.546Z,100008.96
2022-10-31T04:30:19.655Z,100007.92
2022-10-31T04:31:22.125Z,100012.08
2022-10-31T04:32:25.686Z,100010.28
2022-10-31T04:33:30.420Z,100018.06
2022-10-31T04:34:33.894Z,100010.39
2022-10-31T04:35:37.012Z,100016.17
2022-10-31T04:36:41.938Z,100012.39
2022-10-31T04:37:46.278Z,100010.28
2022-10-31T04:38:50.315Z,100012.09
2022-10-31T04:39:54.437Z,100012.00
2022-10-31T04:41:12.046Z,100019.27
2022-10-31T04:42:22.797Z,100027.70
2022-10-31T04:43:26.168Z,100031.30
2022-10-31T04:44:29.776Z,100020.61
2022-10-31T04:45:33.686Z,100036.23
2022-10-31T04:46:38.037Z,100024.88
2022-10-31T04:47:42.700Z,100035.38
2022-10-31T04:48:46.407Z,100028.66
2022-10-31T04:49:54.500Z,100033.86
2022-10-31T04:51:02.189Z,100033.45
2022-10-31T04:52:05.697Z,100037.81
2022-10-31T04:53:11.504Z,100048.40
2022-10-31T04:54:16.661Z,100039.91
2022-10-31T04:55:40.061Z,100043.32
2022-10-31T04:56:57.137Z,100047.37
2022-10-31T04:58:01.475Z,100047.94
2022-10-31T04:59:06.627Z,100062.20
2022-10-31T05:00:16.565Z,100059.66
2022-10-31T05:01:21.003Z,100059.84
2022-10-31T05:02:25.203Z,100066.20
2022-10-31T05:03:32.228Z,100069.20
2022-10-31T05:04:36.251Z,100075.35
2022-10-31T05:05:39.027Z,100073.73
2022-10-31T05:06:41.916Z,100084.41
2022-10-31T05:07:46.977Z,100078.09
2022-10-31T05:08:50.338Z,100085.27
2022-10-31T05:09:53.785Z,100089.25
2022-10-31T05:11:03.285Z,100084.59
2022-10-31T05:12:04.980Z,100077.72
2022-10-31T05:13:18.987Z,100084.37
2022-10-31T05:14:43.492Z,100085.27
2022-10-31T05:15:53.824Z,100091.41
2022-10-31T05:17:15.712Z,100095.94
2022-10-31T05:18:37.495Z,100101.33
2022-10-31T05:19:51.049Z,100100.09
2022-10-31T05:21:14.842Z,100092.70
2022-10-31T05:22:24.078Z,100102.42
2022-10-31T05:23:27.863Z,100105.41
2022-10-31T05:24:32.300Z,100115.63
2022-10-31T05:25:36.958Z,100113.88
2022-10-31T05:26:43.351Z,100112.84
2022-10-31T05:27:47.617Z,100121.66
2022-10-31T05:28:54.057Z,100116.74
2022-10-31T05:29:57.447Z,100120.05
2022-10-31T05:31:01.722Z,100127.16
2022-10-31T05:32:06.453Z,100132.37
2022-10-31T05:33:31.448Z,100132.55
2022-10-31T05:34:45.517Z,100135.30
2022-10-31T05:35:51.678Z,100136.89
2022-10-31T05:37:06.123Z,100132.16
2022-10-31T05:38:11.598Z,100142.20
2022-10-31T05:39:16.772Z,100141.35
2022-10-31T05:40:22.586Z,100146.47
2022-10-31T05:41:25.661Z,100150.82
2022-10-31T05:42:30.425Z,100149.66
2022-10-31T05:43:34.522Z,100148.63
2022-10-31T05:44:40.679Z,100157.61
2022-10-31T05:46:05.281Z,100162.91
2022-10-31T05:47:22.784Z,100158.66
2022-10-31T05:48:37.440Z,100164.41
2022-10-31T05:49:51.830Z,100162.26
2022-10-31T05:51:13.348Z,100172.67
2022-10-31T05:52:17.015Z,100169.05
2022-10-31T05:53:23.573Z,100174.25
2022-10-31T05:54:27.152Z,100174.45
2022-10-31T05:55:31.186Z,100181.34
2022-10-31T05:56:36.361Z,100177.61
2022-10-31T05:57:40.169Z,100182.55
2022-10-31T05:58:44.302Z,100193.20
2022-10-31T05:59:52.287Z,100190.10
2022-10-31T06:00:53.863Z,100200.02
2022-10-31T06:01:57.740Z,100196.37
2022-10-31T06:03:05.947Z,100204.05
2022-10-31T06:04:11.550Z,100203.75
2022-10-31T06:05:15.362Z,100207.18
2022-10-31T06:06:17.724Z,100218.25
2022-10-31T06:07:23.319Z,100217.31
2022-10-31T06:08:27.032Z,100204.73
2022-10-31T06:09:31.233Z,100217.31
2022-10-31T06:10:34.489Z,100215.42
2022-10-31T06:11:37.956Z,100228.30
2022-10-31T06:12:43.897Z,100230.55
2022-10-31T06:13:48.932Z,100226.38
2022-10-31T06:15:00.065Z,100222.80
2022-10-31T06:16:03.059Z,100229.16
2022-10-31T06:17:08.459Z,100231.30
2022-10-31T06:18:24.573Z,100236.20
2022-10-31T06:19:29.240Z,100235.81
2022-10-31T06:20:33.065Z,100249.08
2022-10-31T06:21:39.267Z,100241.99
2022-10-31T06:22:43.656Z,100243.05
2022-10-31T06:23:47.022Z,100251.20
2022-10-31T06:25:09.524Z,100259.16
2022-10-31T06:26:14.907Z,100261.78
2022-10-31T06:27:21.917Z,100255.25
2022-10-31T06:28:25.409Z,100251.75
2022-10-31T06:29:33.057Z,100261.88
2022-10-31T06:30:39.905Z,100268.02
2022-10-31T06:31:43.618Z,100270.78
2022-10-31T06:32:47.855Z,100269.53
2022-10-31T06:33:52.428Z,100280.13
2022-10-31T06:34:57.685Z,100278.80
2022-10-31T06:36:01.608Z,100283.02
2022-10-31T06:37:07.307Z,100275.06
2022-10-31T06:38:11.378Z,100282.55
2022-10-31T06:39:16.722Z,100288.99
2022-10-31T06:40:21.930Z,100291.39
2022-10-31T06:41:43.069Z,100283.72
2022-10-31T06:42:46.963Z,100297.48
2022-10-31T06:43:50.822Z,100304.95
2022-10-31T06:44:56.945Z,100301.45
2022-10-31T06:46:06.147Z,100306.32
2022-10-31T06:47:15.095Z,100298.79
2022-10-31T06:48:32.898Z,100311.13
2022-10-31T06:49:56.366Z,100310.07
2022-10-31T06:51:02.667Z,100310.77
2022-10-31T06:52:06.409Z,100326.70
2022-10-31T06:54:13.923Z,100328.79
2022-10-31T06:55:17.323Z,100335.31
2022-10-31T06:56:20.944Z,100334.77
2022-10-31T06:57:27.364Z,100333.53
2022-10-31T06:58:31.914Z,100356.99
2022-10-31T06:59:38.038Z,100355.42
2022-10-31T07:00:51.442Z,100361.87
2022-10-31T07:01:53.915Z,100371.67
2022-10-31T07:02:58.048Z,100368.20
2022-10-31T07:04:02.399Z,100381.22
2022-10-31T07:05:07.788Z,100380.20
2022-10-31T07:06:10.656Z,100391.20
2022-10-31T07:07:15.741Z,100387.13
2022-10-31T07:08:18.408Z,100387.37
2022-10-31T07:09:22.958Z,100392.98
2022-10-31T07:10:37.249Z,100388.21
2022-10-31T07:11:40.830Z,100396.41
2022-10-31T07:12:44.439Z,100399.20
2022-10-31T07:13:48.152Z,100400.72
2022-10-31T07:14:52.702Z,100397.52
2022-10-31T07:15:58.402Z,100404.60
2022-10-31T07:17:02.411Z,100416.16
2022-10-31T07:18:09.824Z,100404.11
2022-10-31T07:19:13.511Z,100408.52
2022-10-31T07:20:16.390Z,100413.53
2022-10-31T07:21:19.958Z,100422.21
2022-10-31T07:22:23.424Z,100420.55
2022-10-31T07:23:26.158Z,100419.80
2022-10-31T07:24:49.316Z,100426.75
2022-10-31T07:26:12.273Z,100416.90
2022-10-31T07:27:17.618Z,100416.66
2022-10-31T07:28:21.974Z,100432.86
2022-10-31T07:29:26.616Z,100417.56
2022-10-31T07:30:30.015Z,100420.83
2022-10-31T07:31:33.741Z,100420.28
2022-10-31T07:32:43.096Z,100432.72
2022-10-31T07:33:45.652Z,100427.14
2022-10-31T07:35:03.342Z,100438.86
2022-10-31T07:36:10.217Z,100436.19
2022-10-31T07:37:15.519Z,100440.61
2022-10-31T07:38:19.865Z,100436.53
2022-10-31T07:39:26.269Z,100431.22
2022-10-31T07:40:31.757Z,100435.30
2022-10-31T07:41:35.352Z,100429.40
2022-10-31T07:42:40.229Z,100430.50
2022-10-31T07:43:45.981Z,100434.77
2022-10-31T07:44:57.855Z,100438.28
2022-10-31T07:46:20.810Z,100439.40
2022-10-31T07:47:47.310Z,100433.04
2022-10-31T07:49:09.719Z,100439.30
2022-10-31T07:50:31.398Z,100441.68
2022-10-31T07:51:53.601Z,100448.86
2022-10-31T07:53:04.564Z,100443.00
2022-10-31T07:54:18.888Z,100444.28
2022-10-31T07:55:21.229Z,100446.87
2022-10-31T07:56:26.838Z,100454.03
2022-10-31T07:57:34.443Z,100442.44
2022-10-31T07:58:38.327Z,100442.09
2022-10-31T07:59:41.925Z,100440.78
2022-10-31T08:00:46.502Z,100436.13
2022-10-31T08:01:51.556Z,100447.63
2022-10-31T08:03:07.898Z,100448.31
2022-10-31T08:04:31.056Z,100446.15
2022-10-31T08:05:55.756Z,100441.94
2022-10-31T08:07:01.366Z,100447.14
2022-10-31T08:08:07.170Z,100447.97
2022-10-31T08:09:10.780Z,100447.03
2022-10-31T08:10:13.643Z,100453.48
2022-10-31T08:11:17.424Z,100436.55
2022-10-31T08:12:21.189Z,100439.23
2022-10-31T08:13:24.481Z,100435.99
2022-10-31T08:14:28.302Z,100437.29
2022-10-31T08:15:32.540Z,100433.44
2022-10-31T08:16:37.723Z,100424.75
2022-10-31T08:17:41.727Z,100437.44
2022-10-31T08:18:47.128Z,100432.98
2022-10-31T08:19:50.721Z,100439.16
2022-10-31T08:20:56.123Z,100436.47
2022-10-31T08:22:00.657Z,100434.52
2022-10-31T08:23:05.956Z,100429.41
2022-10-31T08:24:11.232Z,100438.67
2022-10-31T08:25:15.677Z,100430.56
2022-10-31T08:26:18.436Z,100436.11
2022-10-31T08:27:25.408Z,100437.65
2022-10-31T08:28:31.415Z,100431.16
2022-10-31T08:29:35.023Z,100427.06
2022-10-31T08:30:38.738Z,100429.05
2022-10-31T08:31:59.583Z,100435.83
2022-10-31T08:33:18.964Z,100422.45
2022-10-31T08:34:33.210Z,100421.59
2022-10-31T08:35:55.427Z,100420.73
2022-10-31T08:37:21.596Z,100420.17
2022-10-31T08:38:27.489Z,100425.11
2022-10-31T08:39:36.022Z,100419.78
2022-10-31T08:40:42.844Z,100417.27
2022-10-31T08:41:46.062Z,100418.20
2022-10-31T08:42:49.525Z,100425.11
2022-10-31T08:43:52.952Z,100413.28
2022-10-31T08:44:57.293Z,100425.83
2022-10-31T08:46:00.484Z,100400.05
2022-10-31T08:47:04.861Z,100408.27
2022-10-31T08:48:14.299Z,100400.88
2022-10-31T08:49:19.393Z,100404.27
2022-10-31T08:50:25.575Z,100409.92
2022-10-31T08:51:28.872Z,100404.01
2022-10-31T08:52:58.782Z,100409.39
2022-10-31T08:53:38.497Z,100410.63
2022-10-31T08:54:45.597Z,100411.81
2022-10-31T08:56:10.411Z,100411.08
2022-10-31T08:57:13.984Z,100418.68
2022-10-31T08:58:23.300Z,100416.22
2022-10-31T08:59:30.094Z,100423.63
2022-10-31T09:00:41.637Z,100423.27
2022-10-31T09:01:54.215Z,100420.60
2022-10-31T09:02:58.876Z,100427.28
2022-10-31T09:04:02.470Z,100427.17
2022-10-31T09:05:08.008Z,100427.50
2022-10-31T09:06:12.765Z,100423.48
2022-10-31T09:07:20.496Z,100420.73
2022-10-31T09:08:23.812Z,100407.56
2022-10-31T09:09:27.828Z,100404.90
2022-10-31T09:10:33.004Z,100412.20
2022-10-31T09:11:36.626Z,100399.08
2022-10-31T09:12:58.095Z,100390.19
2022-10-31T09:14:06.197Z,100402.61
2022-10-31T09:15:27.232Z,100403.64
2022-10-31T09:16:32.413Z,100392.64
2022-10-31T09:17:35.929Z,100397.63
2022-10-31T09:18:59.065Z,100398.76
2022-10-31T09:20:03.620Z,100396.50
2022-10-31T09:21:08.691Z,100393.59
2022-10-31T09:22:12.092Z,100398.42
2022-10-31T09:23:16.637Z,100396.31
2022-10-31T09:24:20.186Z,100406.11
2022-10-31T09:25:24.058Z,100414.58
2022-10-31T09:26:29.235Z,100408.68
2022-10-31T09:27:36.616Z,100403.94
2022-10-31T09:28:41.166Z,100401.27
2022-10-31T09:29:46.445Z,100404.90
2022-10-31T09:30:52.034Z,100401.98
2022-10-31T09:31:58.156Z,100400.88
2022-10-31T09:33:05.081Z,100401.38
2022-10-31T09:34:09.858Z,100401.95
2022-10-31T09:35:17.286Z,100404.09
2022-10-31T09:36:20.525Z,100394.17
2022-10-31T09:37:24.141Z,100392.28
2022-10-31T09:38:27.332Z,100401.61
2022-10-31T09:39:31.988Z,100398.09
2022-10-31T09:40:45.192Z,100405.46
2022-10-31T09:41:54.637Z,100398.98
2022-10-31T09:43:09.753Z,100401.48
2022-10-31T09:44:15.250Z,100397.72
2022-10-31T09:45:26.910Z,100390.70
2022-10-31T09:46:41.376Z,100390.39
2022-10-31T09:47:49.113Z,100403.58
2022-10-31T09:49:20.730Z,100390.08
2022-10-31T09:50:31.475Z,100400.20
2022-10-31T09:51:49.190Z,100397.48
2022-10-31T09:52:57.112Z,100384.34
2022-10-31T09:54:06.908Z,100407.70
2022-10-31T09:55:12.757Z,100391.22
2022-10-31T09:56:18.351Z,100401.02
2022-10-31T09:57:22.694Z,100397.91
2022-10-31T09:58:32.129Z,100405.47
2022-10-31T09:59:37.523Z,100402.22
2022-10-31T10:00:40.780Z,100395.24
2022-10-31T10:01:46.269Z,100407.13
2022-10-31T10:02:58.108Z,100396.80
2022-10-31T10:04:03.451Z,100396.30
2022-10-31T10:05:12.885Z,100397.41
2022-10-31T10:06:19.651Z,100404.79
2022-10-31T10:07:47.579Z,100402.33
2022-10-31T10:09:13.000Z,100407.84
2022-10-31T10:10:54.181Z,100405.39
2022-10-31T10:12:16.449Z,100392.61
2022-10-31T10:13:39.917Z,100400.43
2022-10-31T10:15:03.997Z,100398.66
2022-10-31T10:16:25.675Z,100385.87
2022-10-31T10:17:47.657Z,100398.97
2022-10-31T10:18:57.987Z,100389.42
2022-10-31T10:20:20.914Z,100393.27
2022-10-31T10:21:30.117Z,100396.36
2022-10-31T10:22:44.736Z,100402.10
2022-10-31T10:24:00.343Z,100392.97
2022-10-31T10:25:06.356Z,100391.89
2022-10-31T10:26:14.141Z,100398.69
2022-10-31T10:27:29.031Z,100398.33
2022-10-31T10:28:37.748Z,100406.42
2022-10-31T10:29:55.154Z,100398.81
2022-10-31T10:31:01.505Z,100409.58
2022-10-31T10:32:06.866Z,100400.41
2022-10-31T10:33:14.014Z,100406.36
2022-10-31T10:34:23.472Z,100404.88
2022-10-31T10:35:31.833Z,100417.55
2022-10-31T10:36:45.836Z,100404.54
2022-10-31T10:37:51.118Z,100404.64
2022-10-31T10:38:56.098Z,100397.44
2022-10-31T10:40:04.707Z,100403.82
2022-10-31T10:41:10.236Z,100388.35
2022-10-31T10:42:34.383Z,100397.91
2022-10-31T10:43:39.400Z,100405.07
2022-10-31T10:45:02.099Z,100404.34
2022-10-31T10:46:36.611Z,100404.44
2022-10-31T10:47:41.868Z,100403.59
2022-10-31T10:48:45.815Z,100403.69
2022-10-31T10:49:55.585Z,100412.84
2022-10-31T10:51:01.703Z,100408.16
2022-10-31T10:52:40.778Z,100422.44
2022-10-31T10:53:36.907Z,100415.86
2022-10-31T10:54:54.519Z,100416.27
2022-10-31T10:55:59.296Z,100415.32
2022-10-31T10:57:16.663Z,100411.89
2022-10-31T10:58:22.152Z,100417.66
2022-10-31T10:59:26.089Z,100413.48
2022-10-31T11:00:31.379Z,100406.45
2022-10-31T11:01:34.028Z,100418.85
2022-10-31T11:02:39.108Z,100411.75
2022-10-31T11:03:43.123Z,100416.97
2022-10-31T11:04:48.511Z,100412.07
2022-10-31T11:05:54.886Z,100410.80
2022-10-31T11:07:05.558Z,100421.58
2022-10-31T11:08:10.411Z,100414.89
2022-10-31T11:09:14.241Z,100420.52
2022-10-31T11:10:20.238Z,100416.59
2022-10-31T11:11:30.594Z,100420.00
2022-10-31T11:12:35.615Z,100415.64
2022-10-31T11:13:40.989Z,100417.02
2022-10-31T11:14:48.926Z,100420.42
2022-10-31T11:15:54.494Z,100421.93
2022-10-31T11:17:13.909Z,100419.13
2022-10-31T11:18:19.408Z,100414.05
2022-10-31T11:19:24.522Z,100424.28
2022-10-31T11:20:32.012Z,100424.23
2022-10-31T11:21:35.303Z,100417.47
2022-10-31T11:22:39.124Z,100420.70
2022-10-31T11:23:42.626Z,100430.81
2022-10-31T11:24:45.911Z,100429.98
2022-10-31T11:25:58.504Z,100425.20
2022-10-31T11:27:07.869Z,100423.30
2022-10-31T11:28:10.644Z,100426.48
2022-10-31T11:29:17.687Z,100431.17
2022-10-31T11:30:20.461Z,100426.39
2022-10-31T11:31:23.006Z,100437.56
2022-10-31T11:32:29.077Z,100426.98
2022-10-31T11:33:34.738Z,100430.94
2022-10-31T11:34:40.791Z,100433.43
2022-10-31T11:35:53.596Z,100431.38
2022-10-31T11:36:58.937Z,100433.10
2022-10-31T11:38:04.349Z,100429.06
2022-10-31T11:39:09.600Z,100433.73
2022-10-31T11:40:17.469Z,100424.27
2022-10-31T11:41:24.241Z,100430.96
2022-10-31T11:42:34.230Z,100432.45
2022-10-31T11:43:37.724Z,100431.59
2022-10-31T11:44:44.149Z,100425.22
2022-10-31T11:45:48.656Z,100427.01
2022-10-31T11:46:54.492Z,100427.98
2022-10-31T11:47:59.904Z,100435.62
2022-10-31T11:49:03.077Z,100429.59
2022-10-31T11:50:08.608Z,100430.86
2022-10-31T11:51:12.293Z,100426.87
2022-10-31T11:52:17.562Z,100431.67
2022-10-31T11:53:22.739Z,100430.52
2022-10-31T11:54:29.063Z,100424.38
2022-10-31T11:55:35.998Z,100436.19
2022-10-31T11:56:41.584Z,100438.64
2022-10-31T11:57:50.640Z,100433.42
2022-10-31T11:59:01.287Z,100426.39
2022-10-31T12:00:06.940Z,100428.38
2022-10-31T12:01:27.866Z,100430.09
2022-10-31T12:02:32.785Z,100436.30
2022-10-31T12:03:37.400Z,100427.05
2022-10-31T12:04:42.074Z,100432.30
2022-10-31T12:05:50.525Z,100434.89
2022-10-31T12:06:54.723Z,100430.31
2022-10-31T12:08:04.449Z,100436.80
2022-10-31T12:09:17.729Z,100441.52
2022-10-31T12:10:23.006Z,100441.80
2022-10-31T12:11:32.364Z,100442.76
2022-10-31T12:12:37.631Z,100436.09
2022-10-31T12:14:03.910Z,100444.58
2022-10-31T12:15:19.630Z,100439.16
2022-10-31T12:16:42.885Z,100438.51
2022-10-31T12:17:47.510Z,100442.67
2022-10-31T12:18:53.585Z,100446.50
2022-10-31T12:20:15.384Z,100448.09
2022-10-31T12:21:34.183Z,100442.46
2022-10-31T12:22:39.188Z,100448.00
2022-10-31T12:23:46.400Z,100445.75
2022-10-31T12:24:50.790Z,100448.95
2022-10-31T12:25:55.978Z,100441.61
2022-10-31T12:27:02.884Z,100452.56
2022-10-31T12:28:10.673Z,100453.41
2022-10-31T12:29:16.276Z,100443.22
2022-10-31T12:30:20.408Z,100444.24
2022-10-31T12:31:41.156Z,100454.44
2022-10-31T12:32:58.962Z,100451.13
2022-10-31T12:34:05.705Z,100447.66
2022-10-31T12:35:13.586Z,100456.90
2022-10-31T12:36:24.832Z,100443.80
2022-10-31T12:37:35.708Z,100453.48
2022-10-31T12:38:51.570Z,100446.16
2022-10-31T12:39:57.595Z,100448.06
2022-10-31T12:41:03.085Z,100440.77
2022-10-31T12:42:10.651Z,100451.27
2022-10-31T12:43:20.433Z,100444.69
2022-10-31T12:45:58.949Z,100442.20
2022-10-31T12:47:10.327Z,100454.02
2022-10-31T12:48:27.502Z,100457.27
2022-10-31T12:49:32.375Z,100454.44
2022-10-31T12:50:36.926Z,100456.78
2022-10-31T12:51:42.207Z,100455.70
2022-10-31T12:52:53.847Z,100460.40
2022-10-31T12:54:03.942Z,100449.56
2022-10-31T12:55:26.144Z,100461.70
2022-10-31T12:56:37.413Z,100455.33
2022-10-31T12:57:45.889Z,100457.14
2022-10-31T12:58:56.076Z,100461.36
2022-10-31T13:00:00.589Z,100461.16
2022-10-31T13:01:19.541Z,100452.73
2022-10-31T13:02:26.898Z,100468.39